Terminal Aerodrome Forecast
Issued by NWS

Home | Current Version | Previous Version | Text Only | Print | Product List | Glossary On
Versions: 1 2 3 4 5 6 7 8 9 10 11 12
000
FTUS43 KDVN 180500
TAFBRL
TAF
KBRL 180520Z 1806/1906 VRB04KT P6SM SCT060 SCT250
     FM181200 09006KT P6SM SCT100 SCT200
     FM182000 11008KT P6SM SCT080 BKN150=

USA.gov is the U.S. government's official web portal to all federal, state and local government web resources and services.